IBE271 SBGR-LEMD
Flight info
| Callsign | IBE271 |
|---|---|
| Flight time | 5h 25m |
| Altitude | 35000 |
| Route | VUMEV UZ14 ISKAG DCT DORDU DCT DALOX UZ14 ETIBI DCT UTRAM UN857 NEURA/N0474F370 UN857 GUNET N857 BIPET DCT GDV/N0465F380 N858 VASTO DCT XELER DCT OSLAD DCT PESAS DCT PARKA Z165 SOTUK |
| Aircraft | A346/H-SDE2E3FGHIJ3J4J5M1RWXY/LB1D1 |
Departure
| Time | 2026-05-06 16:39 |
|---|---|
| Airport | São Paulo/Guarulhos–Governor André Franco Montoro International Airport (SBGR) |
Arrival
| Time | 2026-05-06 22:04 |
|---|---|
| Airport | Adolfo Suárez Madrid–Barajas Airport (LEMD) |
| Time | Latitude | Longitude | Altitude | Speed | Heading |
|---|---|---|---|---|---|
| 2026-05-06 15:56 | -23.42761 | -46.47439 | 2460 ft | 0 kts | 74° |
| 2026-05-06 16:24 | -23.42764 | -46.47448 | 2460 ft | 4 kts | 75° |
| 2026-05-06 16:24 | -23.42770 | -46.47475 | 2464 ft | 3 kts | 74° |
| 2026-05-06 16:24 | -23.42775 | -46.47497 | 2462 ft | 4 kts | 88° |
| 2026-05-06 16:25 | -23.42772 | -46.47517 | 2463 ft | 4 kts | 124° |
| 2026-05-06 16:25 | -23.42760 | -46.47527 | 2464 ft | 3 kts | 163° |
| 2026-05-06 16:25 | -23.42778 | -46.47521 | 2464 ft | 4 kts | 163° |
| 2026-05-06 16:25 | -23.42791 | -46.47517 | 2463 ft | 0 kts | 163° |
| 2026-05-06 16:29 | -23.42792 | -46.47517 | 2463 ft | 0 kts | 163° |
| 2026-05-06 16:30 | -23.42794 | -46.47516 | 2464 ft | 0 kts | 164° |
| 2026-05-06 16:30 | -23.42797 | -46.47516 | 2464 ft | 1 kts | 164° |
| 2026-05-06 16:30 | -23.42807 | -46.47512 | 2466 ft | 1 kts | 167° |
| 2026-05-06 16:30 | -23.42814 | -46.47511 | 2468 ft | 2 kts | 168° |
| 2026-05-06 16:31 | -23.42829 | -46.47507 | 2467 ft | 2 kts | 165° |
| 2026-05-06 16:31 | -23.42843 | -46.47503 | 2467 ft | 2 kts | 165° |
| 2026-05-06 16:31 | -23.42860 | -46.47499 | 2464 ft | 2 kts | 165° |
| 2026-05-06 16:31 | -23.42870 | -46.47496 | 2464 ft | 1 kts | 163° |
| 2026-05-06 16:32 | -23.42887 | -46.47490 | 2467 ft | 5 kts | 163° |
| 2026-05-06 16:32 | -23.42934 | -46.47485 | 2468 ft | 6 kts | 216° |
| 2026-05-06 16:32 | -23.42958 | -46.47552 | 2465 ft | 13 kts | 250° |
| 2026-05-06 16:32 | -23.42994 | -46.47678 | 2467 ft | 20 kts | 253° |
| 2026-05-06 16:33 | -23.43035 | -46.47825 | 2467 ft | 20 kts | 253° |
| 2026-05-06 16:33 | -23.43062 | -46.47922 | 2468 ft | 20 kts | 253° |
| 2026-05-06 16:33 | -23.43110 | -46.48111 | 2471 ft | 19 kts | 253° |
| 2026-05-06 16:34 | -23.43155 | -46.48279 | 2473 ft | 3 kts | 252° |
| 2026-05-06 16:34 | -23.43157 | -46.48286 | 2474 ft | 0 kts | 252° |
| 2026-05-06 16:34 | -23.43157 | -46.48287 | 2474 ft | 1 kts | 252° |
| 2026-05-06 16:34 | -23.43160 | -46.48299 | 2472 ft | 3 kts | 252° |
| 2026-05-06 16:35 | -23.43168 | -46.48326 | 2473 ft | 5 kts | 252° |
| 2026-05-06 16:35 | -23.43182 | -46.48374 | 2472 ft | 8 kts | 252° |
| 2026-05-06 16:35 | -23.43229 | -46.48388 | 2473 ft | 6 kts | 170° |
| 2026-05-06 16:35 | -23.43256 | -46.48381 | 2473 ft | 6 kts | 166° |
| 2026-05-06 16:36 | -23.43294 | -46.48370 | 2474 ft | 6 kts | 165° |
| 2026-05-06 16:36 | -23.43347 | -46.48354 | 2474 ft | 9 kts | 165° |
| 2026-05-06 16:36 | -23.43409 | -46.48312 | 2471 ft | 12 kts | 117° |
| 2026-05-06 16:36 | -23.43410 | -46.48272 | 2473 ft | 0 kts | 78° |
| 2026-05-06 16:37 | -23.43399 | -46.48222 | 2470 ft | 0 kts | 76° |
| 2026-05-06 16:37 | -23.43395 | -46.48205 | 2471 ft | 13 kts | 76° |
| 2026-05-06 16:38 | -23.43306 | -46.47881 | 2472 ft | 76 kts | 72° |
| 2026-05-06 16:38 | -23.43096 | -46.47112 | 2474 ft | 133 kts | 72° |
| 2026-05-06 16:38 | -23.42780 | -46.45956 | 2472 ft | 181 kts | 72° |
| 2026-05-06 16:38 | -23.42395 | -46.44545 | 2792 ft | 197 kts | 72° |
| 2026-05-06 16:39 | -23.42088 | -46.43425 | 3472 ft | 189 kts | 72° |
| 2026-05-06 16:39 | -23.41693 | -46.42061 | 4205 ft | 186 kts | 72° |
| 2026-05-06 16:39 | -23.41280 | -46.40706 | 4625 ft | 191 kts | 71° |
| 2026-05-06 16:39 | -23.40828 | -46.39300 | 4892 ft | 200 kts | 71° |
| 2026-05-06 16:40 | -23.40337 | -46.37863 | 5182 ft | 208 kts | 69° |
| 2026-05-06 16:40 | -23.39797 | -46.36356 | 5495 ft | 218 kts | 67° |
| 2026-05-06 16:40 | -23.39115 | -46.34859 | 5803 ft | 228 kts | 58° |
| 2026-05-06 16:40 | -23.38179 | -46.33407 | 6127 ft | 240 kts | 57° |
| 2026-05-06 16:41 | -23.37277 | -46.31806 | 6321 ft | 255 kts | 60° |
| 2026-05-06 16:41 | -23.36339 | -46.30094 | 6629 ft | 270 kts | 59° |
| 2026-05-06 16:41 | -23.35350 | -46.28325 | 7015 ft | 278 kts | 58° |
| 2026-05-06 16:41 | -23.34322 | -46.26520 | 7583 ft | 280 kts | 58° |
| 2026-05-06 16:42 | -23.33282 | -46.24713 | 8208 ft | 282 kts | 58° |
| 2026-05-06 16:42 | -23.32243 | -46.22914 | 8809 ft | 284 kts | 58° |
| 2026-05-06 16:42 | -23.31180 | -46.21079 | 9385 ft | 286 kts | 58° |
| 2026-05-06 16:42 | -23.30107 | -46.19226 | 9979 ft | 288 kts | 58° |
| 2026-05-06 16:43 | -23.29034 | -46.17376 | 10503 ft | 293 kts | 58° |
| 2026-05-06 16:43 | -23.27917 | -46.15451 | 10813 ft | 307 kts | 58° |
| 2026-05-06 16:43 | -23.26735 | -46.13417 | 11064 ft | 322 kts | 58° |
| 2026-05-06 16:43 | -23.25526 | -46.11336 | 11322 ft | 336 kts | 58° |
| 2026-05-06 16:44 | -23.24245 | -46.09132 | 11580 ft | 350 kts | 58° |
| 2026-05-06 16:44 | -23.22906 | -46.06839 | 11842 ft | 365 kts | 56° |
| 2026-05-06 16:44 | -23.21289 | -46.04777 | 12054 ft | 379 kts | 42° |
| 2026-05-06 16:44 | -23.19092 | -46.03165 | 12459 ft | 388 kts | 26° |
| 2026-05-06 16:45 | -23.16555 | -46.02092 | 13075 ft | 391 kts | 20° |
| 2026-05-06 16:45 | -23.13969 | -46.01212 | 13662 ft | 394 kts | 15° |
| 2026-05-06 16:45 | -23.11271 | -46.00542 | 14180 ft | 399 kts | 11° |
| 2026-05-06 16:45 | -23.08498 | -46.00104 | 14653 ft | 403 kts | 7° |
| 2026-05-06 16:46 | -23.05716 | -45.99774 | 15112 ft | 407 kts | 6° |
| 2026-05-06 16:46 | -23.02878 | -45.99448 | 15574 ft | 411 kts | 6° |
| 2026-05-06 16:46 | -23.00003 | -45.99110 | 16046 ft | 415 kts | 6° |
| 2026-05-06 16:46 | -22.97060 | -45.98758 | 16513 ft | 419 kts | 7° |
| 2026-05-06 16:47 | -22.94184 | -45.98409 | 16961 ft | 423 kts | 7° |
| 2026-05-06 16:47 | -22.91247 | -45.97975 | 17388 ft | 426 kts | 12° |
| 2026-05-06 16:47 | -22.88388 | -45.97044 | 17833 ft | 429 kts | 22° |
| 2026-05-06 16:47 | -22.85737 | -45.95589 | 18288 ft | 431 kts | 33° |
| 2026-05-06 16:48 | -22.83240 | -45.93768 | 18696 ft | 434 kts | 36° |
| 2026-05-06 16:48 | -22.80760 | -45.91872 | 19067 ft | 438 kts | 36° |
| 2026-05-06 16:48 | -22.78253 | -45.89948 | 19444 ft | 441 kts | 36° |
| 2026-05-06 16:48 | -22.75736 | -45.88025 | 19840 ft | 444 kts | 36° |
| 2026-05-06 16:49 | -22.73225 | -45.86118 | 20240 ft | 446 kts | 36° |
| 2026-05-06 16:49 | -22.70658 | -45.84177 | 20638 ft | 449 kts | 36° |
| 2026-05-06 16:49 | -22.68079 | -45.82234 | 21037 ft | 451 kts | 36° |
| 2026-05-06 16:49 | -22.65528 | -45.80314 | 21428 ft | 454 kts | 35° |
| 2026-05-06 16:50 | -22.62916 | -45.78350 | 21802 ft | 457 kts | 35° |
| 2026-05-06 16:50 | -22.60281 | -45.76371 | 22180 ft | 460 kts | 35° |
| 2026-05-06 16:50 | -22.57667 | -45.74409 | 22577 ft | 463 kts | 35° |
| 2026-05-06 16:50 | -22.54990 | -45.72401 | 22961 ft | 466 kts | 35° |
| 2026-05-06 16:51 | -22.52342 | -45.70414 | 23337 ft | 469 kts | 35° |
| 2026-05-06 16:51 | -22.49650 | -45.68396 | 23712 ft | 472 kts | 35° |
| 2026-05-06 16:51 | -22.46925 | -45.66355 | 24024 ft | 475 kts | 35° |
| 2026-05-06 16:51 | -22.44186 | -45.64303 | 24335 ft | 478 kts | 35° |
| 2026-05-06 16:52 | -22.41464 | -45.62267 | 24643 ft | 481 kts | 35° |
| 2026-05-06 16:52 | -22.38689 | -45.60191 | 24964 ft | 484 kts | 35° |
| 2026-05-06 16:52 | -22.35937 | -45.58133 | 25279 ft | 487 kts | 35° |
| 2026-05-06 16:52 | -22.33126 | -45.56032 | 25603 ft | 490 kts | 35° |
| 2026-05-06 16:53 | -22.30334 | -45.53946 | 25921 ft | 493 kts | 35° |
| 2026-05-06 16:53 | -22.27494 | -45.51825 | 26240 ft | 496 kts | 35° |
| 2026-05-06 16:53 | -22.24639 | -45.49694 | 26560 ft | 499 kts | 35° |
| 2026-05-06 16:53 | -22.21800 | -45.47577 | 26875 ft | 502 kts | 35° |
| 2026-05-06 16:54 | -22.18912 | -45.45423 | 27187 ft | 505 kts | 35° |
| 2026-05-06 16:54 | -22.16013 | -45.43262 | 27500 ft | 508 kts | 35° |
| 2026-05-06 16:54 | -22.13084 | -45.41080 | 27814 ft | 510 kts | 35° |
| 2026-05-06 16:54 | -22.10195 | -45.38928 | 28257 ft | 509 kts | 35° |
| 2026-05-06 16:55 | -22.07263 | -45.36746 | 28766 ft | 508 kts | 35° |
| 2026-05-06 16:55 | -22.04344 | -45.34551 | 29252 ft | 508 kts | 36° |
| 2026-05-06 16:55 | -22.01555 | -45.32273 | 29702 ft | 507 kts | 38° |
| 2026-05-06 16:55 | -21.98742 | -45.29904 | 30134 ft | 507 kts | 38° |
| 2026-05-06 16:56 | -21.95988 | -45.27574 | 30502 ft | 507 kts | 38° |
| 2026-05-06 16:56 | -21.93196 | -45.25211 | 30856 ft | 507 kts | 38° |
| 2026-05-06 16:56 | -21.90446 | -45.22886 | 31203 ft | 507 kts | 38° |
| 2026-05-06 16:56 | -21.87658 | -45.20532 | 31554 ft | 507 kts | 38° |
| 2026-05-06 16:57 | -21.84861 | -45.18174 | 31908 ft | 507 kts | 38° |
| 2026-05-06 16:57 | -21.82070 | -45.15823 | 32265 ft | 507 kts | 38° |
| 2026-05-06 16:57 | -21.79313 | -45.13501 | 32604 ft | 507 kts | 38° |
| 2026-05-06 16:57 | -21.76524 | -45.11154 | 32934 ft | 507 kts | 38° |
| 2026-05-06 16:58 | -21.73763 | -45.08833 | 33259 ft | 507 kts | 38° |
| 2026-05-06 16:58 | -21.70985 | -45.06497 | 33560 ft | 507 kts | 37° |
| 2026-05-06 16:58 | -21.68189 | -45.04149 | 33838 ft | 508 kts | 37° |
| 2026-05-06 16:58 | -21.65429 | -45.01832 | 34073 ft | 510 kts | 37° |
| 2026-05-06 16:59 | -21.62615 | -44.99471 | 34278 ft | 511 kts | 37° |
| 2026-05-06 16:59 | -21.59792 | -44.97103 | 34498 ft | 512 kts | 37° |
| 2026-05-06 16:59 | -21.57008 | -44.94770 | 34690 ft | 514 kts | 37° |
| 2026-05-06 16:59 | -21.54175 | -44.92397 | 34891 ft | 515 kts | 37° |
| 2026-05-06 17:00 | -21.51326 | -44.90010 | 35093 ft | 516 kts | 37° |
| 2026-05-06 17:00 | -21.45662 | -44.85268 | 35134 ft | 518 kts | 37° |
| 2026-05-06 17:01 | -21.39990 | -44.80523 | 35139 ft | 518 kts | 37° |
| 2026-05-06 17:01 | -21.34276 | -44.75751 | 35130 ft | 518 kts | 37° |
| 2026-05-06 17:02 | -21.28601 | -44.71013 | 35138 ft | 517 kts | 37° |
| 2026-05-06 17:02 | -21.22940 | -44.66291 | 35135 ft | 517 kts | 37° |
| 2026-05-06 17:03 | -21.17209 | -44.61517 | 35136 ft | 517 kts | 37° |
| 2026-05-06 17:03 | -21.11526 | -44.56788 | 35134 ft | 517 kts | 37° |
| 2026-05-06 17:04 | -21.05809 | -44.52032 | 35135 ft | 517 kts | 37° |
| 2026-05-06 17:04 | -21.00142 | -44.47322 | 35139 ft | 516 kts | 37° |
| 2026-05-06 17:05 | -20.94426 | -44.42582 | 35136 ft | 517 kts | 37° |
| 2026-05-06 17:05 | -20.88710 | -44.37846 | 35139 ft | 517 kts | 37° |
| 2026-05-06 17:06 | -20.82984 | -44.33106 | 35149 ft | 517 kts | 37° |
| 2026-05-06 17:06 | -20.77295 | -44.28403 | 35143 ft | 517 kts | 37° |
| 2026-05-06 17:07 | -20.71611 | -44.23706 | 35145 ft | 516 kts | 37° |
| 2026-05-06 17:07 | -20.65907 | -44.18997 | 35144 ft | 516 kts | 37° |
| 2026-05-06 17:08 | -20.60250 | -44.14290 | 35137 ft | 516 kts | 37° |
| 2026-05-06 17:08 | -20.54593 | -44.09506 | 35142 ft | 517 kts | 37° |
| 2026-05-06 17:09 | -20.48959 | -44.04775 | 35142 ft | 517 kts | 37° |
| 2026-05-06 17:09 | -20.43187 | -44.00057 | 35141 ft | 518 kts | 36° |
| 2026-05-06 17:10 | -20.37478 | -43.95403 | 35139 ft | 518 kts | 36° |
| 2026-05-06 17:10 | -20.31771 | -43.90746 | 35140 ft | 518 kts | 36° |
| 2026-05-06 17:11 | -20.25976 | -43.86013 | 35135 ft | 518 kts | 37° |
| 2026-05-06 17:11 | -20.20166 | -43.81278 | 35144 ft | 519 kts | 36° |
| 2026-05-06 17:12 | -20.14393 | -43.76576 | 35146 ft | 519 kts | 36° |
| 2026-05-06 17:12 | -20.08618 | -43.71875 | 35156 ft | 519 kts | 36° |
| 2026-05-06 17:13 | -20.02888 | -43.67212 | 35157 ft | 519 kts | 36° |
| 2026-05-06 17:13 | -19.97156 | -43.62552 | 35150 ft | 519 kts | 36° |
| 2026-05-06 17:14 | -19.91392 | -43.57874 | 35134 ft | 519 kts | 35° |
| 2026-05-06 17:14 | -19.85436 | -43.53609 | 35139 ft | 518 kts | 30° |
| 2026-05-06 17:15 | -19.79306 | -43.49613 | 35123 ft | 518 kts | 30° |
| 2026-05-06 17:15 | -19.73150 | -43.45610 | 35129 ft | 518 kts | 30° |
| 2026-05-06 17:16 | -19.66974 | -43.41584 | 35127 ft | 518 kts | 30° |
| 2026-05-06 17:16 | -19.60813 | -43.37564 | 35126 ft | 518 kts | 30° |
| 2026-05-06 17:17 | -19.54684 | -43.33568 | 35124 ft | 518 kts | 30° |
| 2026-05-06 17:17 | -19.48545 | -43.29569 | 35125 ft | 518 kts | 30° |
| 2026-05-06 17:18 | -19.42386 | -43.25560 | 35124 ft | 518 kts | 30° |
| 2026-05-06 17:18 | -19.36206 | -43.21542 | 35125 ft | 518 kts | 30° |
| 2026-05-06 17:19 | -19.30077 | -43.17560 | 35123 ft | 518 kts | 30° |
| 2026-05-06 17:19 | -19.23948 | -43.13582 | 35117 ft | 518 kts | 30° |
| 2026-05-06 17:20 | -19.17781 | -43.09582 | 35114 ft | 518 kts | 30° |
| 2026-05-06 17:20 | -19.11600 | -43.05578 | 35118 ft | 518 kts | 30° |
| 2026-05-06 17:21 | -19.05394 | -43.01575 | 35141 ft | 521 kts | 32° |
| 2026-05-06 17:21 | -18.99147 | -42.97546 | 35126 ft | 528 kts | 33° |
| 2026-05-06 17:22 | -18.92832 | -42.93444 | 35115 ft | 528 kts | 33° |
| 2026-05-06 17:22 | -18.87601 | -42.90059 | 35121 ft | 528 kts | 33° |
| 2026-05-06 17:23 | -18.80229 | -42.85299 | 35117 ft | 528 kts | 33° |
| 2026-05-06 17:23 | -18.74994 | -42.81924 | 35117 ft | 528 kts | 33° |
| 2026-05-06 17:24 | -18.68697 | -42.77869 | 35120 ft | 528 kts | 33° |
| 2026-05-06 17:24 | -18.62443 | -42.73845 | 35117 ft | 528 kts | 33° |
| 2026-05-06 17:25 | -18.56201 | -42.69832 | 35117 ft | 527 kts | 33° |
| 2026-05-06 17:25 | -18.49917 | -42.65796 | 35116 ft | 526 kts | 33° |
| 2026-05-06 17:26 | -18.43680 | -42.61792 | 35116 ft | 526 kts | 32° |
| 2026-05-06 17:26 | -18.37395 | -42.57762 | 35111 ft | 526 kts | 32° |
| 2026-05-06 17:27 | -18.31184 | -42.53782 | 35111 ft | 526 kts | 32° |
| 2026-05-06 17:27 | -18.24927 | -42.49777 | 35112 ft | 526 kts | 32° |
| 2026-05-06 17:28 | -18.18648 | -42.45761 | 35112 ft | 525 kts | 32° |
| 2026-05-06 17:28 | -18.12432 | -42.41788 | 35114 ft | 525 kts | 32° |
| 2026-05-06 17:29 | -18.06200 | -42.37809 | 35112 ft | 524 kts | 32° |
| 2026-05-06 17:29 | -17.99997 | -42.33852 | 35116 ft | 524 kts | 32° |
| 2026-05-06 17:30 | -17.93663 | -42.29815 | 35117 ft | 524 kts | 32° |
| 2026-05-06 17:30 | -17.87417 | -42.25836 | 35119 ft | 524 kts | 32° |
| 2026-05-06 17:31 | -17.81206 | -42.21883 | 35120 ft | 523 kts | 32° |
| 2026-05-06 17:31 | -17.74987 | -42.17929 | 35126 ft | 523 kts | 32° |
| 2026-05-06 17:32 | -17.68733 | -42.13954 | 35124 ft | 522 kts | 32° |
| 2026-05-06 17:32 | -17.62541 | -42.10022 | 35125 ft | 522 kts | 32° |
| 2026-05-06 17:33 | -17.56363 | -42.06101 | 35125 ft | 521 kts | 32° |
| 2026-05-06 17:33 | -17.50138 | -42.02108 | 35127 ft | 521 kts | 34° |
| 2026-05-06 17:34 | -17.44334 | -41.97645 | 35125 ft | 518 kts | 41° |
| 2026-05-06 17:34 | -17.38990 | -41.92546 | 35120 ft | 517 kts | 46° |
| 2026-05-06 17:35 | -17.33756 | -41.87331 | 35126 ft | 518 kts | 46° |
| 2026-05-06 17:35 | -17.28547 | -41.82166 | 35125 ft | 517 kts | 45° |
| 2026-05-06 17:36 | -17.20682 | -41.74406 | 35121 ft | 517 kts | 45° |
| 2026-05-06 17:36 | -17.15462 | -41.69267 | 35120 ft | 517 kts | 45° |
| 2026-05-06 17:37 | -17.10191 | -41.64080 | 35121 ft | 517 kts | 45° |
| 2026-05-06 17:37 | -17.04944 | -41.58924 | 35124 ft | 517 kts | 45° |
| 2026-05-06 17:38 | -16.99721 | -41.53795 | 35121 ft | 516 kts | 45° |
| 2026-05-06 17:38 | -16.94484 | -41.48655 | 35116 ft | 516 kts | 45° |
| 2026-05-06 17:39 | -16.89218 | -41.43492 | 35117 ft | 516 kts | 45° |
| 2026-05-06 17:39 | -16.83978 | -41.38357 | 35112 ft | 516 kts | 45° |
| 2026-05-06 17:40 | -16.78744 | -41.33233 | 35115 ft | 515 kts | 45° |
| 2026-05-06 17:40 | -16.73527 | -41.28129 | 35115 ft | 515 kts | 45° |
| 2026-05-06 17:41 | -16.68264 | -41.22985 | 35109 ft | 515 kts | 45° |
| 2026-05-06 17:41 | -16.63050 | -41.17893 | 35110 ft | 514 kts | 45° |
| 2026-05-06 17:42 | -16.57833 | -41.12802 | 35113 ft | 514 kts | 45° |
| 2026-05-06 17:42 | -16.52608 | -41.07707 | 35110 ft | 514 kts | 45° |
| 2026-05-06 17:43 | -16.47366 | -41.02598 | 35108 ft | 513 kts | 45° |
| 2026-05-06 17:43 | -16.42146 | -40.97516 | 35107 ft | 513 kts | 45° |
| 2026-05-06 17:44 | -16.36907 | -40.92419 | 35111 ft | 513 kts | 45° |
| 2026-05-06 17:44 | -16.31721 | -40.87377 | 35111 ft | 513 kts | 45° |
| 2026-05-06 17:45 | -16.26493 | -40.82299 | 35108 ft | 513 kts | 45° |
| 2026-05-06 17:45 | -16.21282 | -40.77240 | 35109 ft | 513 kts | 44° |
| 2026-05-06 17:46 | -16.16053 | -40.72168 | 35103 ft | 512 kts | 45° |
| 2026-05-06 17:46 | -16.10851 | -40.67127 | 35104 ft | 512 kts | 44° |
| 2026-05-06 17:47 | -16.05640 | -40.62080 | 35099 ft | 512 kts | 44° |
| 2026-05-06 17:47 | -16.00398 | -40.57007 | 35097 ft | 512 kts | 44° |
| 2026-05-06 17:48 | -15.95199 | -40.51977 | 35096 ft | 512 kts | 44° |
| 2026-05-06 17:48 | -15.89963 | -40.46918 | 35095 ft | 511 kts | 44° |
| 2026-05-06 17:49 | -15.84768 | -40.41902 | 35093 ft | 511 kts | 44° |
| 2026-05-06 17:49 | -15.79515 | -40.36833 | 35094 ft | 511 kts | 44° |
| 2026-05-06 17:50 | -15.74316 | -40.31819 | 35091 ft | 510 kts | 44° |
| 2026-05-06 17:50 | -15.69136 | -40.26827 | 35087 ft | 510 kts | 44° |
| 2026-05-06 17:51 | -15.63915 | -40.21798 | 35086 ft | 510 kts | 44° |
| 2026-05-06 17:51 | -15.58664 | -40.16867 | 35083 ft | 510 kts | 40° |
| 2026-05-06 17:52 | -15.53035 | -40.12407 | 35082 ft | 510 kts | 37° |
| 2026-05-06 17:52 | -15.47312 | -40.08072 | 35081 ft | 510 kts | 37° |
| 2026-05-06 17:53 | -15.41561 | -40.03708 | 35076 ft | 510 kts | 37° |
| 2026-05-06 17:53 | -15.35852 | -39.99368 | 35071 ft | 510 kts | 37° |
| 2026-05-06 17:54 | -15.30123 | -39.95012 | 35077 ft | 509 kts | 36° |
| 2026-05-06 17:54 | -15.24408 | -39.90668 | 35068 ft | 509 kts | 36° |
| 2026-05-06 17:55 | -15.18665 | -39.86308 | 35065 ft | 509 kts | 36° |
| 2026-05-06 17:55 | -15.12962 | -39.81979 | 35065 ft | 509 kts | 36° |
| 2026-05-06 17:56 | -15.07231 | -39.77632 | 35064 ft | 509 kts | 36° |
| 2026-05-06 17:56 | -15.01526 | -39.73307 | 35064 ft | 509 kts | 36° |
| 2026-05-06 17:57 | -14.95809 | -39.68985 | 35061 ft | 509 kts | 36° |
| 2026-05-06 17:57 | -14.90093 | -39.64684 | 35058 ft | 509 kts | 36° |
| 2026-05-06 17:58 | -14.84356 | -39.60370 | 35057 ft | 509 kts | 36° |
| 2026-05-06 17:58 | -14.78609 | -39.56048 | 35056 ft | 508 kts | 36° |
| 2026-05-06 17:59 | -14.72903 | -39.51758 | 35054 ft | 508 kts | 36° |
| 2026-05-06 17:59 | -14.67172 | -39.47453 | 35051 ft | 508 kts | 36° |
| 2026-05-06 18:00 | -14.61482 | -39.43181 | 35055 ft | 508 kts | 36° |
| 2026-05-06 18:00 | -14.55781 | -39.38902 | 35051 ft | 507 kts | 36° |
| 2026-05-06 18:01 | -14.50037 | -39.34596 | 35049 ft | 507 kts | 36° |
| 2026-05-06 18:01 | -14.44331 | -39.30319 | 35048 ft | 507 kts | 36° |
| 2026-05-06 18:02 | -14.38645 | -39.26062 | 35052 ft | 506 kts | 36° |
| 2026-05-06 18:02 | -14.32963 | -39.21809 | 35050 ft | 506 kts | 36° |
| 2026-05-06 18:03 | -14.27240 | -39.17528 | 35051 ft | 506 kts | 35° |
| 2026-05-06 18:03 | -14.21523 | -39.13255 | 35051 ft | 506 kts | 35° |
| 2026-05-06 18:04 | -14.15849 | -39.09016 | 35046 ft | 506 kts | 35° |
| 2026-05-06 18:04 | -14.10132 | -39.04749 | 35044 ft | 506 kts | 35° |
| 2026-05-06 18:05 | -14.04454 | -39.00512 | 35040 ft | 506 kts | 35° |
| 2026-05-06 18:05 | -13.98712 | -38.96232 | 35044 ft | 505 kts | 35° |
| 2026-05-06 18:06 | -13.93021 | -38.91992 | 35044 ft | 505 kts | 35° |
| 2026-05-06 18:06 | -13.87337 | -38.87759 | 35044 ft | 505 kts | 35° |
| 2026-05-06 18:07 | -13.81629 | -38.83512 | 35038 ft | 504 kts | 35° |
| 2026-05-06 18:07 | -13.75963 | -38.79298 | 35038 ft | 504 kts | 35° |
| 2026-05-06 18:08 | -13.70285 | -38.75078 | 35036 ft | 504 kts | 35° |
| 2026-05-06 18:08 | -13.64605 | -38.70859 | 35035 ft | 504 kts | 34° |
| 2026-05-06 18:09 | -13.58894 | -38.66620 | 35037 ft | 504 kts | 34° |
| 2026-05-06 18:09 | -13.53216 | -38.62407 | 35038 ft | 504 kts | 34° |
| 2026-05-06 18:10 | -13.47516 | -38.58181 | 35036 ft | 504 kts | 34° |
| 2026-05-06 18:10 | -13.42810 | -38.54694 | 35034 ft | 503 kts | 34° |
| 2026-05-06 18:11 | -13.37111 | -38.50473 | 35032 ft | 503 kts | 34° |
| 2026-05-06 18:11 | -13.31440 | -38.46274 | 35028 ft | 503 kts | 34° |
| 2026-05-06 18:12 | -13.24804 | -38.41365 | 35026 ft | 504 kts | 34° |
| 2026-05-06 18:12 | -13.20020 | -38.37827 | 35024 ft | 504 kts | 34° |
| 2026-05-06 18:13 | -13.14340 | -38.33628 | 35020 ft | 504 kts | 34° |
| 2026-05-06 18:13 | -13.08664 | -38.29436 | 35016 ft | 505 kts | 34° |
| 2026-05-06 18:14 | -13.02967 | -38.25237 | 35011 ft | 505 kts | 34° |
| 2026-05-06 18:14 | -12.97238 | -38.21015 | 35011 ft | 505 kts | 34° |
| 2026-05-06 18:15 | -12.91539 | -38.16817 | 35017 ft | 505 kts | 34° |
| 2026-05-06 18:15 | -12.85825 | -38.12608 | 35014 ft | 505 kts | 34° |
| 2026-05-06 18:16 | -12.80126 | -38.08412 | 35015 ft | 505 kts | 34° |
| 2026-05-06 18:16 | -12.74401 | -38.04201 | 35022 ft | 505 kts | 34° |
| 2026-05-06 18:17 | -12.68709 | -38.00015 | 35021 ft | 505 kts | 34° |
| 2026-05-06 18:17 | -12.62981 | -37.95806 | 35021 ft | 505 kts | 34° |
| 2026-05-06 18:18 | -12.57276 | -37.91616 | 35014 ft | 506 kts | 33° |
| 2026-05-06 18:18 | -12.51545 | -37.87409 | 35029 ft | 506 kts | 33° |
| 2026-05-06 18:19 | -12.45835 | -37.83219 | 35013 ft | 506 kts | 33° |
| 2026-05-06 18:19 | -12.40091 | -37.79008 | 35026 ft | 506 kts | 33° |
| 2026-05-06 18:20 | -12.34386 | -37.74826 | 35025 ft | 506 kts | 33° |
| 2026-05-06 18:20 | -12.28642 | -37.70619 | 35018 ft | 506 kts | 33° |
| 2026-05-06 18:21 | -12.22934 | -37.66440 | 35016 ft | 506 kts | 33° |
| 2026-05-06 18:21 | -12.17213 | -37.62255 | 35019 ft | 506 kts | 33° |
| 2026-05-06 18:22 | -12.11461 | -37.58047 | 35016 ft | 506 kts | 33° |
| 2026-05-06 18:22 | -12.05757 | -37.53878 | 35017 ft | 506 kts | 33° |
| 2026-05-06 18:23 | -12.00039 | -37.49699 | 35014 ft | 506 kts | 33° |
| 2026-05-06 18:23 | -11.94302 | -37.45509 | 35010 ft | 506 kts | 33° |
| 2026-05-06 18:24 | -11.88530 | -37.41312 | 35011 ft | 506 kts | 33° |
| 2026-05-06 18:24 | -11.82806 | -37.37172 | 35007 ft | 506 kts | 32° |
| 2026-05-06 18:25 | -11.77039 | -37.33000 | 35009 ft | 506 kts | 32° |
| 2026-05-06 18:25 | -11.71317 | -37.28859 | 35009 ft | 506 kts | 32° |
| 2026-05-06 18:26 | -11.65546 | -37.24685 | 35002 ft | 507 kts | 32° |
| 2026-05-06 18:26 | -11.59802 | -37.20532 | 35000 ft | 507 kts | 32° |
| 2026-05-06 18:27 | -11.54051 | -37.16375 | 35000 ft | 507 kts | 32° |
| 2026-05-06 18:27 | -11.48316 | -37.12233 | 35000 ft | 507 kts | 32° |
| 2026-05-06 18:28 | -11.42561 | -37.08079 | 35000 ft | 507 kts | 32° |
| 2026-05-06 18:28 | -11.36773 | -37.03903 | 34994 ft | 507 kts | 32° |
| 2026-05-06 18:29 | -11.31028 | -36.99759 | 34994 ft | 507 kts | 32° |
| 2026-05-06 18:29 | -11.25274 | -36.95611 | 34984 ft | 507 kts | 32° |
| 2026-05-06 18:30 | -11.19505 | -36.91455 | 34978 ft | 507 kts | 32° |
| 2026-05-06 18:30 | -11.13772 | -36.87326 | 34978 ft | 506 kts | 32° |
| 2026-05-06 18:31 | -11.08019 | -36.83185 | 34975 ft | 506 kts | 32° |
| 2026-05-06 18:31 | -11.02253 | -36.79037 | 34977 ft | 506 kts | 32° |
| 2026-05-06 18:32 | -10.96516 | -36.74910 | 34983 ft | 505 kts | 32° |
| 2026-05-06 18:32 | -10.90741 | -36.70758 | 34989 ft | 504 kts | 32° |
| 2026-05-06 18:33 | -10.85032 | -36.66655 | 34988 ft | 503 kts | 32° |
| 2026-05-06 18:33 | -10.79309 | -36.62561 | 34983 ft | 503 kts | 32° |
| 2026-05-06 18:34 | -10.73554 | -36.58471 | 34981 ft | 502 kts | 32° |
| 2026-05-06 18:34 | -10.67832 | -36.54402 | 34980 ft | 501 kts | 32° |
| 2026-05-06 18:35 | -10.62135 | -36.50350 | 34980 ft | 501 kts | 32° |
| 2026-05-06 18:35 | -10.56435 | -36.46297 | 34981 ft | 501 kts | 32° |
| 2026-05-06 18:36 | -10.50704 | -36.42223 | 34981 ft | 501 kts | 32° |
| 2026-05-06 18:36 | -10.45016 | -36.38182 | 34979 ft | 500 kts | 31° |
| 2026-05-06 18:37 | -10.40254 | -36.34799 | 34981 ft | 500 kts | 31° |
| 2026-05-06 18:37 | -10.33589 | -36.30068 | 34980 ft | 501 kts | 31° |
| 2026-05-06 18:38 | -10.27860 | -36.26004 | 34982 ft | 501 kts | 31° |
| 2026-05-06 18:38 | -10.22166 | -36.21966 | 34977 ft | 501 kts | 31° |
| 2026-05-06 18:39 | -10.16434 | -36.17902 | 34979 ft | 501 kts | 31° |
| 2026-05-06 18:40 | -10.07861 | -36.11827 | 34975 ft | 500 kts | 31° |
| 2026-05-06 18:40 | -10.02126 | -36.07766 | 34973 ft | 500 kts | 31° |
| 2026-05-06 18:41 | -9.96412 | -36.03722 | 34976 ft | 500 kts | 31° |
| 2026-05-06 18:41 | -9.90709 | -35.99687 | 34977 ft | 500 kts | 31° |
| 2026-05-06 18:42 | -9.84985 | -35.95639 | 34974 ft | 501 kts | 31° |
| 2026-05-06 18:42 | -9.79271 | -35.91600 | 34975 ft | 501 kts | 31° |
| 2026-05-06 18:43 | -9.73531 | -35.87544 | 34975 ft | 501 kts | 31° |
| 2026-05-06 18:43 | -9.67821 | -35.83511 | 34977 ft | 501 kts | 31° |
| 2026-05-06 18:44 | -9.62084 | -35.79460 | 34978 ft | 501 kts | 31° |
| 2026-05-06 18:44 | -9.56366 | -35.75425 | 34980 ft | 501 kts | 31° |
| 2026-05-06 18:45 | -9.50657 | -35.71397 | 34977 ft | 501 kts | 31° |
| 2026-05-06 18:45 | -9.44921 | -35.67353 | 34978 ft | 501 kts | 31° |
| 2026-05-06 18:46 | -9.39183 | -35.63308 | 34977 ft | 501 kts | 31° |
| 2026-05-06 18:46 | -9.33459 | -35.59274 | 34973 ft | 501 kts | 31° |
| 2026-05-06 18:47 | -9.27758 | -35.55256 | 34967 ft | 500 kts | 31° |
| 2026-05-06 18:47 | -9.22011 | -35.51209 | 34967 ft | 500 kts | 31° |
| 2026-05-06 18:48 | -9.16316 | -35.47205 | 34964 ft | 500 kts | 31° |
| 2026-05-06 18:48 | -9.10578 | -35.43172 | 34963 ft | 500 kts | 31° |
| 2026-05-06 18:49 | -9.04882 | -35.39167 | 34968 ft | 500 kts | 31° |
| 2026-05-06 18:49 | -8.99131 | -35.35124 | 34958 ft | 500 kts | 31° |
| 2026-05-06 18:50 | -8.93422 | -35.31111 | 34971 ft | 501 kts | 31° |
| 2026-05-06 18:50 | -8.87686 | -35.27083 | 34960 ft | 501 kts | 31° |
| 2026-05-06 18:51 | -8.81941 | -35.23054 | 34965 ft | 501 kts | 31° |
| 2026-05-06 18:51 | -8.76184 | -35.19017 | 34955 ft | 500 kts | 31° |
| 2026-05-06 18:52 | -8.70488 | -35.15022 | 34960 ft | 500 kts | 31° |
| 2026-05-06 18:52 | -8.64754 | -35.11002 | 34951 ft | 500 kts | 31° |
| 2026-05-06 18:53 | -8.59044 | -35.06999 | 34956 ft | 500 kts | 31° |
| 2026-05-06 18:53 | -8.53344 | -35.03005 | 34955 ft | 500 kts | 31° |
| 2026-05-06 18:54 | -8.47609 | -34.98988 | 34956 ft | 499 kts | 31° |
| 2026-05-06 18:54 | -8.41920 | -34.95004 | 34951 ft | 499 kts | 31° |
| 2026-05-06 18:55 | -8.36198 | -34.90998 | 34950 ft | 499 kts | 31° |
| 2026-05-06 18:55 | -8.30502 | -34.87011 | 34948 ft | 499 kts | 31° |
| 2026-05-06 18:56 | -8.24782 | -34.83008 | 34953 ft | 498 kts | 31° |
| 2026-05-06 18:56 | -8.19077 | -34.79056 | 34949 ft | 498 kts | 28° |
| 2026-05-06 18:57 | -8.13092 | -34.75540 | 34957 ft | 495 kts | 24° |
| 2026-05-06 18:57 | -8.07071 | -34.72253 | 34950 ft | 495 kts | 24° |
| 2026-05-06 18:58 | -8.01019 | -34.68950 | 34946 ft | 495 kts | 24° |
| 2026-05-06 18:58 | -7.94919 | -34.65614 | 34945 ft | 495 kts | 24° |
| 2026-05-06 18:59 | -7.88883 | -34.62311 | 34943 ft | 495 kts | 24° |
| 2026-05-06 18:59 | -7.83837 | -34.59549 | 34942 ft | 495 kts | 24° |
| 2026-05-06 19:00 | -7.77757 | -34.56223 | 34940 ft | 495 kts | 24° |
| 2026-05-06 19:00 | -7.71708 | -34.52915 | 34939 ft | 495 kts | 24° |
| 2026-05-06 19:01 | -7.65664 | -34.49610 | 34939 ft | 495 kts | 24° |
| 2026-05-06 19:01 | -7.59587 | -34.46288 | 34940 ft | 495 kts | 24° |
| 2026-05-06 19:02 | -7.53545 | -34.42986 | 34938 ft | 495 kts | 24° |
| 2026-05-06 19:02 | -7.47465 | -34.39664 | 34939 ft | 495 kts | 24° |
| 2026-05-06 19:03 | -7.41414 | -34.36360 | 34936 ft | 495 kts | 24° |
| 2026-05-06 19:03 | -7.35368 | -34.33058 | 34938 ft | 494 kts | 24° |
| 2026-05-06 19:04 | -7.29326 | -34.29761 | 34935 ft | 494 kts | 24° |
| 2026-05-06 19:04 | -7.23279 | -34.26462 | 34939 ft | 494 kts | 24° |
| 2026-05-06 19:05 | -7.17243 | -34.23170 | 34929 ft | 493 kts | 24° |
| 2026-05-06 19:05 | -7.11180 | -34.19864 | 34936 ft | 493 kts | 24° |
| 2026-05-06 19:06 | -7.05152 | -34.16578 | 34937 ft | 493 kts | 24° |
| 2026-05-06 19:06 | -6.99112 | -34.13287 | 34929 ft | 493 kts | 24° |
| 2026-05-06 19:07 | -6.93077 | -34.09999 | 34933 ft | 493 kts | 24° |
| 2026-05-06 19:07 | -6.87080 | -34.06733 | 34931 ft | 492 kts | 24° |
| 2026-05-06 19:08 | -6.81051 | -34.03450 | 34930 ft | 492 kts | 24° |
| 2026-05-06 19:08 | -6.74999 | -34.00156 | 34930 ft | 492 kts | 24° |
| 2026-05-06 19:09 | -6.68994 | -33.96888 | 34940 ft | 492 kts | 24° |
| 2026-05-06 19:09 | -6.62992 | -33.93623 | 34935 ft | 491 kts | 24° |
| 2026-05-06 19:10 | -6.56946 | -33.90336 | 34918 ft | 491 kts | 24° |
| 2026-05-06 19:10 | -6.50960 | -33.87081 | 34931 ft | 491 kts | 24° |
| 2026-05-06 19:11 | -6.44957 | -33.83818 | 34929 ft | 491 kts | 24° |
| 2026-05-06 19:11 | -6.38931 | -33.80543 | 34927 ft | 491 kts | 24° |
| 2026-05-06 19:12 | -6.32931 | -33.77284 | 34926 ft | 491 kts | 24° |
| 2026-05-06 19:12 | -6.26898 | -33.74007 | 34925 ft | 491 kts | 24° |
| 2026-05-06 19:13 | -6.20904 | -33.70753 | 34927 ft | 491 kts | 24° |
| 2026-05-06 19:13 | -6.14880 | -33.67483 | 34923 ft | 490 kts | 24° |
| 2026-05-06 19:14 | -6.08879 | -33.64227 | 34925 ft | 490 kts | 24° |
| 2026-05-06 19:14 | -6.02896 | -33.60981 | 34921 ft | 490 kts | 24° |
| 2026-05-06 19:15 | -5.96880 | -33.57718 | 34927 ft | 489 kts | 24° |
| 2026-05-06 19:15 | -5.90887 | -33.54468 | 34923 ft | 489 kts | 24° |
| 2026-05-06 19:16 | -5.84906 | -33.51226 | 34919 ft | 488 kts | 24° |
| 2026-05-06 19:16 | -5.78922 | -33.47982 | 34919 ft | 488 kts | 24° |
| 2026-05-06 19:17 | -5.72953 | -33.44748 | 34923 ft | 488 kts | 24° |
| 2026-05-06 19:17 | -5.66995 | -33.41520 | 34922 ft | 488 kts | 24° |
| 2026-05-06 19:18 | -5.61028 | -33.38288 | 34922 ft | 488 kts | 24° |
| 2026-05-06 19:18 | -5.55029 | -33.35040 | 34917 ft | 487 kts | 25° |
| 2026-05-06 19:19 | -5.49077 | -33.31818 | 34920 ft | 487 kts | 25° |
| 2026-05-06 19:19 | -5.43084 | -33.28574 | 34924 ft | 487 kts | 25° |
| 2026-05-06 19:20 | -5.37137 | -33.25356 | 34922 ft | 487 kts | 25° |
| 2026-05-06 19:20 | -5.31153 | -33.22119 | 34918 ft | 487 kts | 24° |
| 2026-05-06 19:21 | -5.25209 | -33.18904 | 34921 ft | 487 kts | 25° |
| 2026-05-06 19:21 | -5.19260 | -33.15687 | 34920 ft | 486 kts | 25° |
| 2026-05-06 19:22 | -5.13291 | -33.12460 | 34917 ft | 486 kts | 25° |
| 2026-05-06 19:22 | -5.07358 | -33.09254 | 34919 ft | 486 kts | 25° |
| 2026-05-06 19:23 | -5.01382 | -33.06024 | 34919 ft | 485 kts | 25° |
| 2026-05-06 19:23 | -4.95435 | -33.02812 | 34917 ft | 485 kts | 25° |
| 2026-05-06 19:24 | -4.89509 | -32.99611 | 34916 ft | 484 kts | 25° |
| 2026-05-06 19:24 | -4.83603 | -32.96422 | 34915 ft | 484 kts | 25° |
| 2026-05-06 19:25 | -4.77661 | -32.93213 | 34920 ft | 483 kts | 25° |
| 2026-05-06 19:25 | -4.71768 | -32.90032 | 34917 ft | 483 kts | 25° |
| 2026-05-06 19:26 | -4.65866 | -32.86846 | 34916 ft | 482 kts | 25° |
| 2026-05-06 19:26 | -4.59963 | -32.83660 | 34918 ft | 482 kts | 25° |
| 2026-05-06 19:27 | -4.54035 | -32.80462 | 34917 ft | 481 kts | 25° |
| 2026-05-06 19:27 | -4.48128 | -32.77276 | 34918 ft | 480 kts | 26° |
| 2026-05-06 19:28 | -4.42263 | -32.74113 | 34918 ft | 480 kts | 26° |
| 2026-05-06 19:28 | -4.36371 | -32.70935 | 34921 ft | 479 kts | 26° |
| 2026-05-06 19:29 | -4.30512 | -32.67776 | 34917 ft | 478 kts | 26° |
| 2026-05-06 19:29 | -4.24637 | -32.64609 | 34918 ft | 478 kts | 26° |
| 2026-05-06 19:30 | -4.18793 | -32.61460 | 34920 ft | 477 kts | 26° |
| 2026-05-06 19:30 | -4.12963 | -32.58318 | 34920 ft | 477 kts | 26° |
| 2026-05-06 19:31 | -4.07859 | -32.55568 | 34922 ft | 476 kts | 26° |
| 2026-05-06 19:31 | -3.99097 | -32.50848 | 34921 ft | 476 kts | 26° |
| 2026-05-06 19:32 | -3.93283 | -32.47717 | 34927 ft | 475 kts | 27° |
| 2026-05-06 19:32 | -3.87472 | -32.44587 | 34925 ft | 475 kts | 27° |
| 2026-05-06 19:33 | -3.81632 | -32.41443 | 34929 ft | 476 kts | 27° |
| 2026-05-06 19:33 | -3.75784 | -32.38294 | 34926 ft | 476 kts | 27° |
| 2026-05-06 19:34 | -3.69972 | -32.35166 | 34925 ft | 476 kts | 27° |
| 2026-05-06 19:34 | -3.64116 | -32.32014 | 34922 ft | 476 kts | 27° |
| 2026-05-06 19:35 | -3.58286 | -32.28876 | 34923 ft | 477 kts | 27° |
| 2026-05-06 19:35 | -3.52420 | -32.25720 | 34921 ft | 477 kts | 27° |
| 2026-05-06 19:36 | -3.46599 | -32.22588 | 34922 ft | 477 kts | 27° |
| 2026-05-06 19:36 | -3.40714 | -32.19421 | 34923 ft | 478 kts | 27° |
| 2026-05-06 19:37 | -3.34878 | -32.16280 | 34923 ft | 478 kts | 27° |
| 2026-05-06 19:37 | -3.29980 | -32.13645 | 34920 ft | 478 kts | 27° |
| 2026-05-06 19:38 | -3.23163 | -32.10036 | 34921 ft | 478 kts | 26° |
| 2026-05-06 19:38 | -3.17220 | -32.06975 | 34921 ft | 479 kts | 26° |
| 2026-05-06 19:39 | -3.11299 | -32.03922 | 34925 ft | 479 kts | 27° |
| 2026-05-06 19:39 | -3.05404 | -32.00875 | 34924 ft | 479 kts | 27° |
| 2026-05-06 19:40 | -2.99475 | -31.97808 | 34921 ft | 478 kts | 27° |
| 2026-05-06 19:40 | -2.93589 | -31.94762 | 34924 ft | 478 kts | 27° |
| 2026-05-06 19:41 | -2.87662 | -31.91695 | 34925 ft | 477 kts | 27° |
| 2026-05-06 19:41 | -2.81767 | -31.88643 | 34926 ft | 477 kts | 27° |
| 2026-05-06 19:42 | -2.75878 | -31.85595 | 34922 ft | 477 kts | 27° |
| 2026-05-06 19:42 | -2.69948 | -31.82527 | 34921 ft | 478 kts | 27° |
| 2026-05-06 19:43 | -2.64061 | -31.79482 | 34924 ft | 478 kts | 27° |
| 2026-05-06 19:43 | -2.58175 | -31.76437 | 34924 ft | 478 kts | 27° |
| 2026-05-06 19:44 | -2.52234 | -31.73365 | 34922 ft | 478 kts | 27° |
| 2026-05-06 19:44 | -2.46339 | -31.70316 | 34921 ft | 479 kts | 27° |
| 2026-05-06 19:45 | -2.40416 | -31.67254 | 34924 ft | 479 kts | 27° |
| 2026-05-06 19:45 | -2.35469 | -31.64697 | 34924 ft | 480 kts | 27° |
| 2026-05-06 19:46 | -2.29533 | -31.61629 | 34923 ft | 480 kts | 27° |
| 2026-05-06 19:46 | -2.22604 | -31.58047 | 34920 ft | 481 kts | 27° |
| 2026-05-06 19:47 | -2.17652 | -31.55488 | 34922 ft | 481 kts | 27° |
| 2026-05-06 19:47 | -2.11714 | -31.52419 | 34923 ft | 482 kts | 27° |
| 2026-05-06 19:48 | -2.05756 | -31.49340 | 34923 ft | 482 kts | 27° |
| 2026-05-06 19:48 | -1.99771 | -31.46247 | 34923 ft | 483 kts | 27° |
| 2026-05-06 19:49 | -1.93775 | -31.43149 | 34925 ft | 484 kts | 27° |
| 2026-05-06 19:49 | -1.87814 | -31.40070 | 34925 ft | 484 kts | 27° |
| 2026-05-06 19:50 | -1.81797 | -31.36961 | 34922 ft | 484 kts | 27° |
| 2026-05-06 19:50 | -1.75829 | -31.33879 | 34922 ft | 484 kts | 27° |
| 2026-05-06 19:51 | -1.69862 | -31.30797 | 34925 ft | 484 kts | 27° |
| 2026-05-06 19:51 | -1.63881 | -31.27708 | 34925 ft | 484 kts | 27° |
| 2026-05-06 19:52 | -1.57912 | -31.24626 | 34923 ft | 484 kts | 27° |
| 2026-05-06 19:52 | -1.51942 | -31.21543 | 34920 ft | 483 kts | 27° |
| 2026-05-06 19:53 | -1.45942 | -31.18443 | 34922 ft | 483 kts | 27° |
| 2026-05-06 19:53 | -1.39977 | -31.15363 | 34922 ft | 483 kts | 27° |
| 2026-05-06 19:54 | -1.34017 | -31.12285 | 34922 ft | 483 kts | 27° |
| 2026-05-06 19:54 | -1.28027 | -31.09191 | 34925 ft | 483 kts | 27° |
| 2026-05-06 19:55 | -1.22077 | -31.06120 | 34923 ft | 483 kts | 27° |
| 2026-05-06 19:55 | -1.16101 | -31.03034 | 34923 ft | 484 kts | 27° |
| 2026-05-06 19:56 | -1.10110 | -30.99941 | 34921 ft | 484 kts | 27° |
| 2026-05-06 19:56 | -1.04113 | -30.96844 | 34923 ft | 484 kts | 27° |
| 2026-05-06 19:57 | -0.98136 | -30.93757 | 34925 ft | 484 kts | 27° |
| 2026-05-06 19:57 | -0.92167 | -30.90675 | 34925 ft | 483 kts | 27° |
| 2026-05-06 19:58 | -0.86197 | -30.87593 | 34921 ft | 483 kts | 27° |
| 2026-05-06 19:58 | -0.80241 | -30.84516 | 34923 ft | 483 kts | 27° |
| 2026-05-06 19:59 | -0.74247 | -30.81417 | 34922 ft | 483 kts | 27° |
| 2026-05-06 19:59 | -0.68285 | -30.78335 | 34922 ft | 483 kts | 27° |
| 2026-05-06 20:00 | -0.62328 | -30.75255 | 34920 ft | 483 kts | 27° |
| 2026-05-06 20:00 | -0.56333 | -30.72156 | 34925 ft | 482 kts | 27° |
| 2026-05-06 20:01 | -0.50388 | -30.69082 | 34923 ft | 482 kts | 27° |
| 2026-05-06 20:01 | -0.44445 | -30.66010 | 34923 ft | 481 kts | 28° |
| 2026-05-06 20:02 | -0.38495 | -30.62934 | 34923 ft | 481 kts | 28° |
| 2026-05-06 20:02 | -0.32569 | -30.59869 | 34923 ft | 481 kts | 28° |
| 2026-05-06 20:03 | -0.26602 | -30.56782 | 34922 ft | 482 kts | 28° |
| 2026-05-06 20:03 | -0.20664 | -30.53712 | 34921 ft | 482 kts | 28° |
| 2026-05-06 20:04 | -0.14708 | -30.50633 | 34919 ft | 483 kts | 28° |
| 2026-05-06 20:04 | -0.08745 | -30.47549 | 34922 ft | 484 kts | 28° |
| 2026-05-06 20:05 | -0.02734 | -30.44442 | 34922 ft | 484 kts | 28° |
| 2026-05-06 20:05 | 0.03247 | -30.41348 | 34925 ft | 484 kts | 28° |
| 2026-05-06 20:06 | 0.09222 | -30.38258 | 34925 ft | 484 kts | 28° |
| 2026-05-06 20:06 | 0.15207 | -30.35161 | 34922 ft | 485 kts | 28° |
| 2026-05-06 20:07 | 0.21198 | -30.32062 | 34924 ft | 485 kts | 28° |
| 2026-05-06 20:07 | 0.27209 | -30.28957 | 34925 ft | 485 kts | 28° |
| 2026-05-06 20:08 | 0.33230 | -30.25847 | 34927 ft | 485 kts | 28° |
| 2026-05-06 20:08 | 0.39205 | -30.22757 | 34926 ft | 485 kts | 28° |
| 2026-05-06 20:09 | 0.45191 | -30.19662 | 34927 ft | 485 kts | 28° |
| 2026-05-06 20:09 | 0.51211 | -30.16548 | 34928 ft | 485 kts | 28° |
| 2026-05-06 20:10 | 0.57186 | -30.13457 | 34924 ft | 485 kts | 28° |
| 2026-05-06 20:10 | 0.63188 | -30.10352 | 34924 ft | 485 kts | 28° |
| 2026-05-06 20:11 | 0.69175 | -30.07255 | 34927 ft | 485 kts | 28° |
| 2026-05-06 20:11 | 0.75199 | -30.04138 | 34928 ft | 486 kts | 28° |
| 2026-05-06 20:12 | 0.81207 | -30.01030 | 34927 ft | 486 kts | 28° |
| 2026-05-06 20:12 | 0.87196 | -29.97932 | 34924 ft | 486 kts | 28° |
| 2026-05-06 20:13 | 0.93186 | -29.94832 | 34924 ft | 486 kts | 28° |
| 2026-05-06 20:13 | 0.99212 | -29.91713 | 34923 ft | 486 kts | 28° |
| 2026-05-06 20:14 | 1.05196 | -29.88617 | 34921 ft | 486 kts | 28° |
| 2026-05-06 20:14 | 1.11247 | -29.85486 | 34921 ft | 486 kts | 28° |
| 2026-05-06 20:15 | 1.17227 | -29.82389 | 34927 ft | 486 kts | 28° |
| 2026-05-06 20:15 | 1.23220 | -29.79286 | 34925 ft | 486 kts | 28° |
| 2026-05-06 20:16 | 1.29262 | -29.76158 | 34924 ft | 486 kts | 28° |
| 2026-05-06 20:16 | 1.35264 | -29.73049 | 34923 ft | 486 kts | 28° |
| 2026-05-06 20:17 | 1.41266 | -29.69938 | 34925 ft | 487 kts | 28° |
| 2026-05-06 20:17 | 1.47256 | -29.66808 | 34924 ft | 487 kts | 28° |
| 2026-05-06 20:18 | 1.53296 | -29.63644 | 34922 ft | 487 kts | 28° |
| 2026-05-06 20:18 | 1.59310 | -29.60495 | 34924 ft | 487 kts | 28° |
| 2026-05-06 20:19 | 1.65304 | -29.57357 | 34920 ft | 487 kts | 28° |
| 2026-05-06 20:19 | 1.71285 | -29.54225 | 34924 ft | 487 kts | 28° |
| 2026-05-06 20:20 | 1.77321 | -29.51064 | 34924 ft | 487 kts | 28° |
| 2026-05-06 20:20 | 1.83310 | -29.47928 | 34927 ft | 487 kts | 28° |
| 2026-05-06 20:21 | 1.89311 | -29.44785 | 34924 ft | 487 kts | 28° |
| 2026-05-06 20:21 | 1.95340 | -29.41628 | 34922 ft | 487 kts | 28° |
| 2026-05-06 20:22 | 2.01343 | -29.38483 | 34925 ft | 487 kts | 28° |
| 2026-05-06 20:22 | 2.07343 | -29.35340 | 34925 ft | 487 kts | 28° |
| 2026-05-06 20:23 | 2.13327 | -29.32205 | 34923 ft | 487 kts | 28° |
| 2026-05-06 20:23 | 2.19309 | -29.29070 | 34922 ft | 487 kts | 28° |
| 2026-05-06 20:24 | 2.25310 | -29.25926 | 34921 ft | 487 kts | 28° |
| 2026-05-06 20:24 | 2.31330 | -29.22771 | 34927 ft | 487 kts | 28° |
| 2026-05-06 20:25 | 2.37313 | -29.19635 | 34928 ft | 487 kts | 28° |
| 2026-05-06 20:25 | 2.43299 | -29.16497 | 34926 ft | 487 kts | 28° |
| 2026-05-06 20:26 | 2.49320 | -29.13341 | 34924 ft | 487 kts | 28° |
| 2026-05-06 20:26 | 2.55299 | -29.10207 | 34923 ft | 486 kts | 28° |
| 2026-05-06 20:27 | 2.61311 | -29.07054 | 34928 ft | 486 kts | 28° |
| 2026-05-06 20:27 | 2.67309 | -29.03909 | 34927 ft | 486 kts | 28° |
| 2026-05-06 20:28 | 2.73278 | -29.00778 | 34926 ft | 487 kts | 28° |
| 2026-05-06 20:28 | 2.79300 | -28.97619 | 34924 ft | 487 kts | 28° |
| 2026-05-06 20:29 | 2.85291 | -28.94476 | 34927 ft | 487 kts | 28° |
| 2026-05-06 20:29 | 2.91281 | -28.91332 | 34929 ft | 487 kts | 28° |
| 2026-05-06 20:30 | 3.00296 | -28.86600 | 34925 ft | 488 kts | 28° |
| 2026-05-06 20:31 | 3.06295 | -28.83450 | 34930 ft | 488 kts | 28° |
| 2026-05-06 20:31 | 3.12335 | -28.80278 | 34928 ft | 488 kts | 28° |
| 2026-05-06 20:32 | 3.18353 | -28.77132 | 34930 ft | 488 kts | 28° |
| 2026-05-06 20:32 | 3.23340 | -28.74529 | 34929 ft | 488 kts | 28° |
| 2026-05-06 20:33 | 3.29387 | -28.71370 | 34930 ft | 488 kts | 28° |
| 2026-05-06 20:33 | 3.35407 | -28.68222 | 34930 ft | 488 kts | 28° |
| 2026-05-06 20:34 | 3.41429 | -28.65070 | 34927 ft | 488 kts | 28° |
| 2026-05-06 20:34 | 3.47431 | -28.61929 | 34932 ft | 488 kts | 28° |
| 2026-05-06 20:35 | 3.53482 | -28.58762 | 34926 ft | 489 kts | 28° |
| 2026-05-06 20:35 | 3.59489 | -28.55618 | 34937 ft | 489 kts | 28° |
| 2026-05-06 20:36 | 3.65547 | -28.52447 | 34933 ft | 489 kts | 28° |
| 2026-05-06 20:36 | 3.71569 | -28.49294 | 34935 ft | 490 kts | 28° |
| 2026-05-06 20:37 | 3.77598 | -28.46137 | 34934 ft | 490 kts | 28° |
| 2026-05-06 20:37 | 3.83636 | -28.42974 | 34933 ft | 490 kts | 28° |
| 2026-05-06 20:38 | 3.89690 | -28.39803 | 34933 ft | 491 kts | 28° |
| 2026-05-06 20:38 | 3.95724 | -28.36641 | 34933 ft | 491 kts | 28° |
| 2026-05-06 20:39 | 4.01789 | -28.33463 | 34937 ft | 491 kts | 28° |
| 2026-05-06 20:39 | 4.07616 | -28.30409 | 34935 ft | 490 kts | 28° |
| 2026-05-06 20:40 | 4.13662 | -28.27240 | 34938 ft | 492 kts | 28° |
| 2026-05-06 20:40 | 4.19778 | -28.24032 | 35303 ft | 496 kts | 28° |
| 2026-05-06 20:40 | 4.22817 | -28.22439 | 35640 ft | 495 kts | 28° |
| 2026-05-06 20:41 | 4.25880 | -28.20832 | 35981 ft | 493 kts | 28° |
| 2026-05-06 20:41 | 4.28939 | -28.19227 | 36300 ft | 492 kts | 28° |
| 2026-05-06 20:41 | 4.31944 | -28.17651 | 36582 ft | 491 kts | 28° |
| 2026-05-06 20:41 | 4.34983 | -28.16057 | 36864 ft | 491 kts | 28° |
| 2026-05-06 20:42 | 4.38013 | -28.14468 | 36928 ft | 490 kts | 28° |
| 2026-05-06 20:42 | 4.44031 | -28.11311 | 36936 ft | 490 kts | 28° |
| 2026-05-06 20:43 | 4.50062 | -28.08148 | 36938 ft | 490 kts | 28° |
| 2026-05-06 20:43 | 33.08569 | -11.02515 | 37933 ft | 496 kts | 37° |
| 2026-05-06 20:43 | 33.11247 | -10.99678 | 38010 ft | 481 kts | 40° |
| 2026-05-06 20:44 | 33.13835 | -10.97137 | 38143 ft | 479 kts | 34° |
| 2026-05-06 20:44 | 33.19164 | -10.92375 | 38034 ft | 480 kts | 32° |
| 2026-05-06 20:45 | 33.24547 | -10.87601 | 38003 ft | 481 kts | 33° |
| 2026-05-06 20:45 | 33.29917 | -10.82792 | 38006 ft | 481 kts | 33° |
| 2026-05-06 20:46 | 33.35244 | -10.77989 | 38011 ft | 481 kts | 33° |
| 2026-05-06 20:46 | 33.40570 | -10.73169 | 38012 ft | 482 kts | 33° |
| 2026-05-06 20:47 | 33.45934 | -10.68302 | 38010 ft | 482 kts | 33° |
| 2026-05-06 20:47 | 33.51246 | -10.63473 | 38008 ft | 482 kts | 33° |
| 2026-05-06 20:48 | 33.56604 | -10.58595 | 38011 ft | 482 kts | 33° |
| 2026-05-06 20:48 | 33.61940 | -10.53728 | 38005 ft | 483 kts | 33° |
| 2026-05-06 20:49 | 33.67284 | -10.48846 | 38008 ft | 483 kts | 33° |
| 2026-05-06 20:49 | 33.72667 | -10.43920 | 38005 ft | 483 kts | 33° |
| 2026-05-06 20:50 | 33.78002 | -10.39030 | 38006 ft | 483 kts | 33° |
| 2026-05-06 20:50 | 33.83338 | -10.34131 | 38000 ft | 484 kts | 33° |
| 2026-05-06 20:51 | 33.88708 | -10.29194 | 38000 ft | 484 kts | 33° |
| 2026-05-06 20:51 | 33.94050 | -10.24275 | 38007 ft | 484 kts | 33° |
| 2026-05-06 20:52 | 33.99420 | -10.19320 | 38003 ft | 485 kts | 34° |
| 2026-05-06 20:52 | 34.04753 | -10.14393 | 38002 ft | 485 kts | 34° |
| 2026-05-06 20:53 | 34.10130 | -10.09416 | 38001 ft | 485 kts | 34° |
| 2026-05-06 20:53 | 34.15481 | -10.04456 | 38003 ft | 486 kts | 34° |
| 2026-05-06 20:54 | 34.20845 | -9.99476 | 38000 ft | 486 kts | 34° |
| 2026-05-06 20:54 | 34.26242 | -9.94455 | 37995 ft | 486 kts | 34° |
| 2026-05-06 20:55 | 34.31609 | -9.89456 | 37996 ft | 486 kts | 34° |
| 2026-05-06 20:55 | 34.36976 | -9.84447 | 37982 ft | 487 kts | 34° |
| 2026-05-06 20:56 | 34.42322 | -9.79450 | 38003 ft | 487 kts | 34° |
| 2026-05-06 20:56 | 34.47669 | -9.74444 | 37989 ft | 487 kts | 34° |
| 2026-05-06 20:57 | 34.53051 | -9.69396 | 37988 ft | 487 kts | 34° |
| 2026-05-06 20:57 | 34.58407 | -9.64365 | 37993 ft | 488 kts | 34° |
| 2026-05-06 20:58 | 34.63755 | -9.59332 | 37987 ft | 488 kts | 34° |
| 2026-05-06 20:58 | 34.69138 | -9.54258 | 37997 ft | 488 kts | 34° |
| 2026-05-06 20:59 | 34.74492 | -9.49203 | 37990 ft | 488 kts | 34° |
| 2026-05-06 20:59 | 34.79880 | -9.44108 | 37992 ft | 488 kts | 34° |
| 2026-05-06 21:00 | 34.85224 | -9.39045 | 37988 ft | 488 kts | 34° |
| 2026-05-06 21:00 | 34.90605 | -9.33938 | 37983 ft | 488 kts | 34° |
| 2026-05-06 21:01 | 34.95964 | -9.28844 | 37988 ft | 489 kts | 34° |
| 2026-05-06 21:01 | 35.01320 | -9.23743 | 37984 ft | 489 kts | 34° |
| 2026-05-06 21:02 | 35.06661 | -9.18649 | 37984 ft | 489 kts | 34° |
| 2026-05-06 21:02 | 35.12038 | -9.13511 | 37981 ft | 489 kts | 34° |
| 2026-05-06 21:03 | 35.17376 | -9.08403 | 37980 ft | 489 kts | 35° |
| 2026-05-06 21:03 | 35.22738 | -9.03261 | 37978 ft | 489 kts | 35° |
| 2026-05-06 21:04 | 35.28092 | -8.98119 | 37975 ft | 489 kts | 35° |
| 2026-05-06 21:04 | 35.33457 | -8.92956 | 37973 ft | 489 kts | 35° |
| 2026-05-06 21:05 | 35.38806 | -8.87802 | 37967 ft | 489 kts | 35° |
| 2026-05-06 21:05 | 35.44150 | -8.82642 | 37967 ft | 490 kts | 35° |
| 2026-05-06 21:06 | 35.49510 | -8.77458 | 37966 ft | 490 kts | 35° |
| 2026-05-06 21:06 | 35.54829 | -8.72287 | 37967 ft | 490 kts | 35° |
| 2026-05-06 21:07 | 35.60203 | -8.67080 | 37967 ft | 490 kts | 35° |
| 2026-05-06 21:07 | 35.65543 | -8.61894 | 37963 ft | 490 kts | 35° |
| 2026-05-06 21:08 | 35.70915 | -8.56663 | 37961 ft | 491 kts | 36° |
| 2026-05-06 21:08 | 35.76253 | -8.51453 | 37956 ft | 491 kts | 36° |
| 2026-05-06 21:09 | 35.81616 | -8.46211 | 37954 ft | 491 kts | 36° |
| 2026-05-06 21:09 | 35.86966 | -8.40969 | 37953 ft | 491 kts | 36° |
| 2026-05-06 21:10 | 35.92314 | -8.35718 | 37949 ft | 491 kts | 36° |
| 2026-05-06 21:10 | 35.97704 | -8.30553 | 37944 ft | 491 kts | 33° |
| 2026-05-06 21:11 | 36.03360 | -8.25680 | 37944 ft | 490 kts | 32° |
| 2026-05-06 21:11 | 36.08959 | -8.20906 | 37928 ft | 491 kts | 32° |
| 2026-05-06 21:12 | 36.14569 | -8.16098 | 37947 ft | 491 kts | 32° |
| 2026-05-06 21:12 | 36.20205 | -8.11250 | 37930 ft | 491 kts | 32° |
| 2026-05-06 21:13 | 36.25805 | -8.06422 | 37932 ft | 492 kts | 32° |
| 2026-05-06 21:13 | 36.31452 | -8.01544 | 37929 ft | 492 kts | 32° |
| 2026-05-06 21:14 | 36.37052 | -7.96697 | 37925 ft | 492 kts | 32° |
| 2026-05-06 21:14 | 36.42648 | -7.91845 | 37922 ft | 492 kts | 32° |
| 2026-05-06 21:15 | 36.48303 | -7.86934 | 37917 ft | 492 kts | 32° |
| 2026-05-06 21:15 | 36.53893 | -7.82069 | 37913 ft | 492 kts | 32° |
| 2026-05-06 21:16 | 36.59522 | -7.77163 | 37909 ft | 492 kts | 32° |
| 2026-05-06 21:16 | 36.65109 | -7.72283 | 37908 ft | 492 kts | 32° |
| 2026-05-06 21:17 | 36.70747 | -7.67350 | 37904 ft | 492 kts | 32° |
| 2026-05-06 21:17 | 36.76338 | -7.62450 | 37899 ft | 493 kts | 33° |
| 2026-05-06 21:18 | 36.81960 | -7.57512 | 37896 ft | 493 kts | 33° |
| 2026-05-06 21:18 | 36.87541 | -7.52601 | 37896 ft | 493 kts | 33° |
| 2026-05-06 21:19 | 36.93171 | -7.47636 | 37893 ft | 493 kts | 33° |
| 2026-05-06 21:19 | 36.98748 | -7.42707 | 37886 ft | 493 kts | 33° |
| 2026-05-06 21:20 | 37.04316 | -7.37598 | 37890 ft | 494 kts | 37° |
| 2026-05-06 21:20 | 37.08655 | -7.32964 | 37895 ft | 494 kts | 39° |
| 2026-05-06 21:21 | 37.14670 | -7.26321 | 37889 ft | 495 kts | 39° |
| 2026-05-06 21:21 | 37.18982 | -7.21554 | 37890 ft | 495 kts | 39° |
| 2026-05-06 21:22 | 37.24164 | -7.15829 | 37884 ft | 495 kts | 40° |
| 2026-05-06 21:22 | 37.29341 | -7.10104 | 37884 ft | 495 kts | 40° |
| 2026-05-06 21:23 | 37.34527 | -7.04360 | 37886 ft | 495 kts | 40° |
| 2026-05-06 21:23 | 37.39728 | -6.98590 | 37885 ft | 495 kts | 40° |
| 2026-05-06 21:24 | 37.44893 | -6.92848 | 37876 ft | 495 kts | 40° |
| 2026-05-06 21:24 | 37.50037 | -6.87118 | 37882 ft | 495 kts | 40° |
| 2026-05-06 21:25 | 37.55206 | -6.81349 | 37880 ft | 494 kts | 40° |
| 2026-05-06 21:25 | 37.60339 | -6.75609 | 37879 ft | 494 kts | 40° |
| 2026-05-06 21:26 | 37.65468 | -6.69863 | 37883 ft | 494 kts | 40° |
| 2026-05-06 21:26 | 37.70629 | -6.64070 | 37881 ft | 494 kts | 40° |
| 2026-05-06 21:27 | 37.75769 | -6.58289 | 37863 ft | 494 kts | 40° |
| 2026-05-06 21:27 | 37.80895 | -6.52513 | 37870 ft | 495 kts | 40° |
| 2026-05-06 21:28 | 37.86067 | -6.46674 | 37873 ft | 495 kts | 40° |
| 2026-05-06 21:28 | 37.91199 | -6.40868 | 37868 ft | 495 kts | 40° |
| 2026-05-06 21:29 | 37.96378 | -6.34998 | 37867 ft | 495 kts | 40° |
| 2026-05-06 21:29 | 38.01530 | -6.29147 | 37871 ft | 495 kts | 40° |
| 2026-05-06 21:30 | 38.06655 | -6.23314 | 37866 ft | 495 kts | 40° |
| 2026-05-06 21:30 | 38.11764 | -6.17489 | 37864 ft | 495 kts | 40° |
| 2026-05-06 21:31 | 38.16899 | -6.11623 | 37863 ft | 495 kts | 40° |
| 2026-05-06 21:31 | 38.21995 | -6.05790 | 37860 ft | 495 kts | 40° |
| 2026-05-06 21:32 | 38.27048 | -5.99994 | 37864 ft | 495 kts | 40° |
| 2026-05-06 21:32 | 38.34808 | -5.91071 | 37855 ft | 495 kts | 41° |
| 2026-05-06 21:33 | 38.39904 | -5.85197 | 37858 ft | 494 kts | 41° |
| 2026-05-06 21:33 | 38.45030 | -5.79276 | 37853 ft | 494 kts | 41° |
| 2026-05-06 21:34 | 38.50102 | -5.73406 | 37851 ft | 494 kts | 41° |
| 2026-05-06 21:34 | 38.55217 | -5.67475 | 37840 ft | 494 kts | 41° |
| 2026-05-06 21:35 | 38.60294 | -5.61577 | 37845 ft | 494 kts | 41° |
| 2026-05-06 21:35 | 38.65380 | -5.55654 | 37844 ft | 494 kts | 41° |
| 2026-05-06 21:36 | 38.70454 | -5.49733 | 37574 ft | 489 kts | 41° |
| 2026-05-06 21:36 | 38.72980 | -5.46782 | 36686 ft | 494 kts | 41° |
| 2026-05-06 21:36 | 38.75537 | -5.43792 | 35579 ft | 507 kts | 41° |
| 2026-05-06 21:37 | 38.78166 | -5.40715 | 34861 ft | 510 kts | 41° |
| 2026-05-06 21:37 | 38.80798 | -5.37631 | 34250 ft | 511 kts | 41° |
| 2026-05-06 21:37 | 38.83422 | -5.34549 | 33606 ft | 511 kts | 41° |
| 2026-05-06 21:37 | 38.86053 | -5.31458 | 32935 ft | 511 kts | 41° |
| 2026-05-06 21:38 | 38.88693 | -5.28352 | 32299 ft | 511 kts | 41° |
| 2026-05-06 21:38 | 38.91282 | -5.25303 | 31693 ft | 510 kts | 41° |
| 2026-05-06 21:38 | 38.93903 | -5.22212 | 31070 ft | 509 kts | 41° |
| 2026-05-06 21:38 | 38.96500 | -5.19105 | 30454 ft | 509 kts | 43° |
| 2026-05-06 21:39 | 38.98947 | -5.15800 | 29815 ft | 509 kts | 48° |
| 2026-05-06 21:39 | 39.01192 | -5.12263 | 29069 ft | 508 kts | 53° |
| 2026-05-06 21:39 | 39.03188 | -5.08565 | 28364 ft | 507 kts | 57° |
| 2026-05-06 21:39 | 39.05059 | -5.04725 | 27710 ft | 505 kts | 58° |
| 2026-05-06 21:40 | 39.06889 | -5.00865 | 27056 ft | 503 kts | 59° |
| 2026-05-06 21:40 | 39.08718 | -4.96992 | 26361 ft | 502 kts | 59° |
| 2026-05-06 21:40 | 39.10542 | -4.93150 | 25724 ft | 500 kts | 59° |
| 2026-05-06 21:40 | 39.12355 | -4.89346 | 25274 ft | 493 kts | 59° |
| 2026-05-06 21:41 | 39.14148 | -4.85595 | 24778 ft | 488 kts | 59° |
| 2026-05-06 21:41 | 39.15930 | -4.81869 | 24280 ft | 483 kts | 59° |
| 2026-05-06 21:41 | 39.17718 | -4.78216 | 23812 ft | 478 kts | 56° |
| 2026-05-06 21:41 | 39.19669 | -4.74752 | 23353 ft | 474 kts | 52° |
| 2026-05-06 21:42 | 39.21768 | -4.71567 | 22869 ft | 468 kts | 47° |
| 2026-05-06 21:42 | 39.24025 | -4.68553 | 22401 ft | 462 kts | 45° |
| 2026-05-06 21:42 | 39.26302 | -4.65623 | 21954 ft | 457 kts | 44° |
| 2026-05-06 21:42 | 39.28527 | -4.62776 | 21525 ft | 451 kts | 45° |
| 2026-05-06 21:43 | 39.30744 | -4.59932 | 21102 ft | 446 kts | 45° |
| 2026-05-06 21:43 | 39.32940 | -4.57100 | 20679 ft | 442 kts | 45° |
| 2026-05-06 21:43 | 39.35113 | -4.54288 | 20246 ft | 438 kts | 45° |
| 2026-05-06 21:43 | 39.37228 | -4.51543 | 19813 ft | 434 kts | 45° |
| 2026-05-06 21:44 | 39.39389 | -4.48733 | 19395 ft | 430 kts | 45° |
| 2026-05-06 21:44 | 39.41518 | -4.45962 | 18973 ft | 427 kts | 45° |
| 2026-05-06 21:44 | 39.43608 | -4.43237 | 18552 ft | 424 kts | 45° |
| 2026-05-06 21:44 | 39.45666 | -4.40551 | 18125 ft | 421 kts | 45° |
| 2026-05-06 21:45 | 39.47725 | -4.37862 | 17656 ft | 418 kts | 45° |
| 2026-05-06 21:45 | 39.49770 | -4.35189 | 17218 ft | 414 kts | 45° |
| 2026-05-06 21:45 | 39.51793 | -4.32544 | 16807 ft | 410 kts | 45° |
| 2026-05-06 21:45 | 39.53776 | -4.29951 | 16381 ft | 407 kts | 45° |
| 2026-05-06 21:46 | 39.55773 | -4.27338 | 15945 ft | 404 kts | 45° |
| 2026-05-06 21:46 | 39.57749 | -4.24748 | 15547 ft | 401 kts | 45° |
| 2026-05-06 21:46 | 39.59668 | -4.22230 | 15403 ft | 389 kts | 45° |
| 2026-05-06 21:46 | 39.61553 | -4.19753 | 15279 ft | 376 kts | 45° |
| 2026-05-06 21:47 | 39.63375 | -4.17357 | 15157 ft | 365 kts | 45° |
| 2026-05-06 21:47 | 39.65131 | -4.15046 | 15045 ft | 353 kts | 45° |
| 2026-05-06 21:47 | 39.66829 | -4.12809 | 14928 ft | 342 kts | 45° |
| 2026-05-06 21:47 | 39.68451 | -4.10672 | 14890 ft | 329 kts | 45° |
| 2026-05-06 21:48 | 39.70038 | -4.08582 | 14725 ft | 321 kts | 45° |
| 2026-05-06 21:48 | 39.71595 | -4.06529 | 14500 ft | 315 kts | 45° |
| 2026-05-06 21:48 | 39.73119 | -4.04518 | 14283 ft | 309 kts | 45° |
| 2026-05-06 21:48 | 39.74593 | -4.02571 | 14119 ft | 301 kts | 45° |
| 2026-05-06 21:49 | 39.76045 | -4.00652 | 13979 ft | 292 kts | 45° |
| 2026-05-06 21:49 | 39.77457 | -3.98782 | 13873 ft | 282 kts | 45° |
| 2026-05-06 21:49 | 39.78827 | -3.96969 | 13773 ft | 278 kts | 45° |
| 2026-05-06 21:49 | 39.80167 | -3.95194 | 13640 ft | 277 kts | 45° |
| 2026-05-06 21:50 | 39.81523 | -3.93400 | 13476 ft | 277 kts | 45° |
| 2026-05-06 21:50 | 39.82887 | -3.91594 | 13154 ft | 277 kts | 45° |
| 2026-05-06 21:50 | 39.84221 | -3.89827 | 12874 ft | 276 kts | 45° |
| 2026-05-06 21:50 | 39.85570 | -3.88037 | 12591 ft | 275 kts | 45° |
| 2026-05-06 21:51 | 39.86908 | -3.86261 | 12309 ft | 273 kts | 46° |
| 2026-05-06 21:51 | 39.88240 | -3.84490 | 12028 ft | 272 kts | 46° |
| 2026-05-06 21:51 | 39.89562 | -3.82732 | 11748 ft | 271 kts | 46° |
| 2026-05-06 21:51 | 39.90864 | -3.81000 | 11478 ft | 269 kts | 46° |
| 2026-05-06 21:52 | 39.92180 | -3.79248 | 11198 ft | 268 kts | 46° |
| 2026-05-06 21:52 | 39.93489 | -3.77506 | 10925 ft | 266 kts | 46° |
| 2026-05-06 21:52 | 39.94766 | -3.75804 | 10658 ft | 265 kts | 46° |
| 2026-05-06 21:52 | 39.96058 | -3.74081 | 10403 ft | 264 kts | 46° |
| 2026-05-06 21:53 | 39.97346 | -3.72362 | 10128 ft | 262 kts | 46° |
| 2026-05-06 21:53 | 39.98621 | -3.70658 | 9866 ft | 261 kts | 46° |
| 2026-05-06 21:53 | 39.99889 | -3.68963 | 9580 ft | 260 kts | 46° |
| 2026-05-06 21:53 | 40.01156 | -3.67269 | 9300 ft | 258 kts | 46° |
| 2026-05-06 21:54 | 40.02396 | -3.65608 | 9048 ft | 256 kts | 46° |
| 2026-05-06 21:54 | 40.03650 | -3.63929 | 8774 ft | 255 kts | 46° |
| 2026-05-06 21:54 | 40.04872 | -3.62294 | 8508 ft | 253 kts | 46° |
| 2026-05-06 21:54 | 40.06108 | -3.60640 | 8237 ft | 252 kts | 46° |
| 2026-05-06 21:55 | 40.07333 | -3.58999 | 7984 ft | 251 kts | 46° |
| 2026-05-06 21:55 | 40.08553 | -3.57363 | 7714 ft | 250 kts | 46° |
| 2026-05-06 21:55 | 40.09754 | -3.55751 | 7454 ft | 249 kts | 46° |
| 2026-05-06 21:55 | 40.10962 | -3.54128 | 7192 ft | 248 kts | 46° |
| 2026-05-06 21:56 | 40.12168 | -3.52509 | 6944 ft | 247 kts | 46° |
| 2026-05-06 21:56 | 40.13374 | -3.50888 | 6675 ft | 246 kts | 46° |
| 2026-05-06 21:56 | 40.14555 | -3.49299 | 6420 ft | 246 kts | 46° |
| 2026-05-06 21:56 | 40.15753 | -3.47688 | 6128 ft | 245 kts | 46° |
| 2026-05-06 21:57 | 40.16941 | -3.46107 | 5974 ft | 239 kts | 44° |
| 2026-05-06 21:57 | 40.18170 | -3.44628 | 5949 ft | 243 kts | 43° |
| 2026-05-06 21:57 | 40.19444 | -3.43126 | 5927 ft | 243 kts | 43° |
| 2026-05-06 21:57 | 40.20740 | -3.41688 | 5918 ft | 243 kts | 37° |
| 2026-05-06 21:58 | 40.22151 | -3.40485 | 5911 ft | 244 kts | 31° |
| 2026-05-06 21:58 | 40.23638 | -3.39392 | 5903 ft | 240 kts | 30° |
| 2026-05-06 21:58 | 40.25106 | -3.38466 | 5868 ft | 229 kts | 18° |
| 2026-05-06 21:58 | 40.26653 | -3.38060 | 5638 ft | 229 kts | 6° |
| 2026-05-06 21:59 | 40.28238 | -3.37934 | 5389 ft | 225 kts | 3° |
| 2026-05-06 21:59 | 40.29790 | -3.37848 | 5109 ft | 222 kts | 4° |
| 2026-05-06 21:59 | 40.31280 | -3.37899 | 4970 ft | 211 kts | 347° |
| 2026-05-06 21:59 | 40.32572 | -3.38643 | 4969 ft | 197 kts | 329° |
| 2026-05-06 22:00 | 40.33691 | -3.39663 | 4975 ft | 189 kts | 324° |
| 2026-05-06 22:00 | 40.34695 | -3.40681 | 4956 ft | 178 kts | 322° |
| 2026-05-06 22:00 | 40.35634 | -3.41654 | 4816 ft | 171 kts | 322° |
| 2026-05-06 22:00 | 40.36564 | -3.42615 | 4585 ft | 169 kts | 323° |
| 2026-05-06 22:01 | 40.37490 | -3.43565 | 4344 ft | 168 kts | 323° |
| 2026-05-06 22:01 | 40.38399 | -3.44493 | 4129 ft | 167 kts | 323° |
| 2026-05-06 22:01 | 40.39319 | -3.45431 | 3908 ft | 166 kts | 323° |
| 2026-05-06 22:01 | 40.40235 | -3.46364 | 3688 ft | 166 kts | 324° |
| 2026-05-06 22:02 | 40.41149 | -3.47295 | 3483 ft | 166 kts | 324° |
| 2026-05-06 22:02 | 40.42054 | -3.48217 | 3245 ft | 164 kts | 324° |
| 2026-05-06 22:02 | 40.42885 | -3.49065 | 3029 ft | 160 kts | 324° |
| 2026-05-06 22:02 | 40.43801 | -3.49998 | 2796 ft | 156 kts | 324° |
| 2026-05-06 22:03 | 40.44666 | -3.50878 | 2576 ft | 153 kts | 323° |
| 2026-05-06 22:03 | 40.45517 | -3.51744 | 2346 ft | 152 kts | 323° |
| 2026-05-06 22:03 | 40.46370 | -3.52610 | 2196 ft | 153 kts | 323° |
| 2026-05-06 22:03 | 40.47220 | -3.53472 | 2010 ft | 153 kts | 323° |
| 2026-05-06 22:04 | 40.47999 | -3.54260 | 1925 ft | 135 kts | 322° |
| 2026-05-06 22:04 | 40.48661 | -3.54938 | 1941 ft | 85 kts | 322° |
| 2026-05-06 22:04 | 40.49027 | -3.55310 | 1949 ft | 43 kts | 322° |
| 2026-05-06 22:04 | 40.49196 | -3.55561 | 1953 ft | 30 kts | 301° |
| 2026-05-06 22:05 | 40.49267 | -3.55763 | 1957 ft | 15 kts | 293° |
| 2026-05-06 22:05 | 40.49297 | -3.55846 | 1958 ft | 0 kts | 303° |
| 2026-05-06 22:05 | 40.49302 | -3.55856 | 1959 ft | 4 kts | 304° |
| 2026-05-06 22:05 | 40.49330 | -3.55901 | 1960 ft | 9 kts | 315° |
| 2026-05-06 22:06 | 40.49393 | -3.55971 | 1961 ft | 15 kts | 322° |
| 2026-05-06 22:06 | 40.49492 | -3.56074 | 1962 ft | 21 kts | 322° |
| 2026-05-06 22:06 | 40.49564 | -3.56139 | 1963 ft | 14 kts | 343° |
| 2026-05-06 22:06 | 40.49714 | -3.56158 | 1963 ft | 20 kts | 330° |
| 2026-05-06 22:07 | 40.49801 | -3.56245 | 1964 ft | 17 kts | 349° |
| 2026-05-06 22:07 | 40.49894 | -3.56256 | 1963 ft | 6 kts | 355° |
| 2026-05-06 22:07 | 40.49923 | -3.56270 | 1963 ft | 7 kts | 319° |
| 2026-05-06 22:07 | 40.49941 | -3.56365 | 1965 ft | 9 kts | 275° |
| 2026-05-06 22:08 | 40.49953 | -3.56435 | 1967 ft | 6 kts | 323° |
| 2026-05-06 22:08 | 40.50003 | -3.56457 | 1967 ft | 8 kts | 342° |
| 2026-05-06 22:08 | 40.50026 | -3.56522 | 1966 ft | 9 kts | 275° |
| 2026-05-06 22:08 | 40.50028 | -3.56602 | 1973 ft | 8 kts | 271° |
| 2026-05-06 22:09 | 40.50028 | -3.56676 | 1976 ft | 8 kts | 269° |
| 2026-05-06 22:09 | 40.50028 | -3.56731 | 1979 ft | 5 kts | 269° |
| 2026-05-06 22:09 | 40.50027 | -3.56772 | 1981 ft | 5 kts | 269° |
| 2026-05-06 22:09 | 40.50027 | -3.56835 | 1984 ft | 9 kts | 269° |
| 2026-05-06 22:10 | 40.50027 | -3.56883 | 1986 ft | 0 kts | 269° |
| 2026-05-06 22:10 | 40.50027 | -3.56903 | 1987 ft | 5 kts | 269° |
| 2026-05-06 22:10 | 40.50023 | -3.56955 | 1991 ft | 7 kts | 251° |
| 2026-05-06 22:10 | 40.49977 | -3.57003 | 1995 ft | 12 kts | 190° |
| 2026-05-06 22:11 | 40.49863 | -3.57010 | 1992 ft | 20 kts | 179° |
| 2026-05-06 22:11 | 40.49711 | -3.57008 | 1995 ft | 19 kts | 179° |
| 2026-05-06 22:11 | 40.49608 | -3.57007 | 1995 ft | 14 kts | 179° |
| 2026-05-06 22:11 | 40.49528 | -3.57006 | 1993 ft | 0 kts | 180° |
| 2026-05-06 22:12 | 40.49526 | -3.57006 | 1993 ft | 0 kts | 180° |
| 2026-05-06 22:12 | 40.49521 | -3.57006 | 1993 ft | 1 kts | 180° |
| 2026-05-06 22:12 | 40.49510 | -3.57006 | 1993 ft | 2 kts | 180° |
| 2026-05-06 22:12 | 40.49487 | -3.57006 | 1993 ft | 4 kts | 179° |
| 2026-05-06 22:13 | 40.49461 | -3.56986 | 1994 ft | 6 kts | 120° |
| 2026-05-06 22:13 | 40.49456 | -3.56972 | 1995 ft | 2 kts | 112° |
| 2026-05-06 22:13 | 40.49457 | -3.56947 | 1993 ft | 5 kts | 73° |
| 2026-05-06 22:13 | 40.49468 | -3.56886 | 1989 ft | 8 kts | 86° |
| 2026-05-06 22:14 | 40.49468 | -3.56879 | 1989 ft | 0 kts | 89° |
| 2026-05-06 22:17 | 36.71798 | -7.66429 | 37404 ft | 0 kts | 32° |
| 2026-05-06 22:17 | 40.49455 | -3.56960 | 1995 ft | 0 kts | 89° |
| 2026-05-06 22:18 | 40.28899 | -3.37897 | 5254 ft | 0 kts | 3° |